sensor_id;sensor_type;location;lat;lon;timestamp;temperature;humidity
33988;DHT22;37428;53.580;-1.666;2023-08-21T00:01:31;16.70;77.60
33988;DHT22;37428;53.580;-1.666;2023-08-21T00:04:33;16.70;77.40
33988;DHT22;37428;53.580;-1.666;2023-08-21T00:07:49;16.70;77.90
33988;DHT22;37428;53.580;-1.666;2023-08-21T00:10:53;16.70;77.90
33988;DHT22;37428;53.580;-1.666;2023-08-21T00:13:58;16.70;78.30
33988;DHT22;37428;53.580;-1.666;2023-08-21T00:17:03;16.70;78.70
33988;DHT22;37428;53.580;-1.666;2023-08-21T00:20:06;16.60;78.80
33988;DHT22;37428;53.580;-1.666;2023-08-21T00:23:10;16.60;79.20
33988;DHT22;37428;53.580;-1.666;2023-08-21T00:26:16;16.60;79.10
33988;DHT22;37428;53.580;-1.666;2023-08-21T00:29:23;16.50;79.50
33988;DHT22;37428;53.580;-1.666;2023-08-21T00:32:25;16.50;79.30
33988;DHT22;37428;53.580;-1.666;2023-08-21T00:35:29;16.50;79.40
33988;DHT22;37428;53.580;-1.666;2023-08-21T00:38:31;16.50;78.90
33988;DHT22;37428;53.580;-1.666;2023-08-21T00:41:33;16.50;78.70
33988;DHT22;37428;53.580;-1.666;2023-08-21T00:44:37;16.50;78.80
33988;DHT22;37428;53.580;-1.666;2023-08-21T00:47:39;16.50;78.90
33988;DHT22;37428;53.580;-1.666;2023-08-21T00:50:43;16.50;79.10
33988;DHT22;37428;53.580;-1.666;2023-08-21T00:53:54;16.40;78.80
33988;DHT22;37428;53.580;-1.666;2023-08-21T00:57:06;16.40;79.20
33988;DHT22;37428;53.580;-1.666;2023-08-21T01:00:11;16.30;79.20
33988;DHT22;37428;53.580;-1.666;2023-08-21T01:03:15;16.20;79.40
33988;DHT22;37428;53.580;-1.666;2023-08-21T01:06:18;16.20;78.80
33988;DHT22;37428;53.580;-1.666;2023-08-21T01:09:27;16.20;78.70
33988;DHT22;37428;53.580;-1.666;2023-08-21T01:12:34;16.30;78.50
33988;DHT22;37428;53.580;-1.666;2023-08-21T01:15:54;16.30;78.00
33988;DHT22;37428;53.580;-1.666;2023-08-21T01:19:01;16.30;78.00
33988;DHT22;37428;53.580;-1.666;2023-08-21T01:22:05;16.30;78.20
33988;DHT22;37428;53.580;-1.666;2023-08-21T01:25:09;16.10;78.40
33988;DHT22;37428;53.580;-1.666;2023-08-21T01:28:11;16.10;79.00
33988;DHT22;37428;53.580;-1.666;2023-08-21T01:31:17;16.10;79.00
33988;DHT22;37428;53.580;-1.666;2023-08-21T01:34:21;16.10;78.70
33988;DHT22;37428;53.580;-1.666;2023-08-21T01:37:26;16.10;78.60
33988;DHT22;37428;53.580;-1.666;2023-08-21T01:40:30;16.10;78.50
33988;DHT22;37428;53.580;-1.666;2023-08-21T01:43:44;16.10;78.70
33988;DHT22;37428;53.580;-1.666;2023-08-21T01:47:01;16.20;79.00
33988;DHT22;37428;53.580;-1.666;2023-08-21T01:50:05;16.10;79.30
33988;DHT22;37428;53.580;-1.666;2023-08-21T01:53:07;16.10;79.30
33988;DHT22;37428;53.580;-1.666;2023-08-21T01:56:20;16.10;79.20
33988;DHT22;37428;53.580;-1.666;2023-08-21T01:59:25;16.10;79.40
33988;DHT22;37428;53.580;-1.666;2023-08-21T02:02:28;16.00;79.90
33988;DHT22;37428;53.580;-1.666;2023-08-21T02:05:30;16.00;79.80
33988;DHT22;37428;53.580;-1.666;2023-08-21T02:08:40;15.90;80.00
33988;DHT22;37428;53.580;-1.666;2023-08-21T02:11:44;15.90;80.20
33988;DHT22;37428;53.580;-1.666;2023-08-21T02:15:07;15.80;80.50
33988;DHT22;37428;53.580;-1.666;2023-08-21T02:18:10;15.80;81.00
33988;DHT22;37428;53.580;-1.666;2023-08-21T02:21:13;15.80;80.90
33988;DHT22;37428;53.580;-1.666;2023-08-21T02:24:16;15.70;81.40
33988;DHT22;37428;53.580;-1.666;2023-08-21T02:27:29;15.70;81.40
33988;DHT22;37428;53.580;-1.666;2023-08-21T02:30:31;15.60;81.50
33988;DHT22;37428;53.580;-1.666;2023-08-21T02:33:33;15.60;81.30
33988;DHT22;37428;53.580;-1.666;2023-08-21T02:36:38;15.60;81.30
33988;DHT22;37428;53.580;-1.666;2023-08-21T02:39:43;15.60;81.60
33988;DHT22;37428;53.580;-1.666;2023-08-21T02:42:48;15.50;81.10
33988;DHT22;37428;53.580;-1.666;2023-08-21T02:45:50;15.40;81.40
33988;DHT22;37428;53.580;-1.666;2023-08-21T02:48:52;15.40;81.80
33988;DHT22;37428;53.580;-1.666;2023-08-21T02:51:56;15.30;81.60
33988;DHT22;37428;53.580;-1.666;2023-08-21T02:55:03;15.30;81.90
33988;DHT22;37428;53.580;-1.666;2023-08-21T02:58:07;15.30;81.90
33988;DHT22;37428;53.580;-1.666;2023-08-21T03:01:20;15.30;81.60
33988;DHT22;37428;53.580;-1.666;2023-08-21T03:04:34;15.20;81.80
33988;DHT22;37428;53.580;-1.666;2023-08-21T03:07:36;15.20;81.80
33988;DHT22;37428;53.580;-1.666;2023-08-21T03:10:46;15.10;81.90
33988;DHT22;37428;53.580;-1.666;2023-08-21T03:13:53;15.00;81.70
33988;DHT22;37428;53.580;-1.666;2023-08-21T03:16:57;15.00;82.10
33988;DHT22;37428;53.580;-1.666;2023-08-21T03:20:00;14.90;82.00
33988;DHT22;37428;53.580;-1.666;2023-08-21T03:23:05;14.90;82.60
33988;DHT22;37428;53.580;-1.666;2023-08-21T03:26:08;14.90;82.90
33988;DHT22;37428;53.580;-1.666;2023-08-21T03:29:13;15.00;82.70
33988;DHT22;37428;53.580;-1.666;2023-08-21T03:32:16;15.00;82.60
33988;DHT22;37428;53.580;-1.666;2023-08-21T03:35:18;15.00;82.30
33988;DHT22;37428;53.580;-1.666;2023-08-21T03:38:22;15.00;82.50
33988;DHT22;37428;53.580;-1.666;2023-08-21T03:41:24;15.00;82.40
33988;DHT22;37428;53.580;-1.666;2023-08-21T03:44:42;14.90;82.20
33988;DHT22;37428;53.580;-1.666;2023-08-21T03:47:56;14.90;82.60
33988;DHT22;37428;53.580;-1.666;2023-08-21T03:51:00;15.00;82.90
33988;DHT22;37428;53.580;-1.666;2023-08-21T03:54:02;15.00;82.80
33988;DHT22;37428;53.580;-1.666;2023-08-21T03:57:04;15.10;82.40
33988;DHT22;37428;53.580;-1.666;2023-08-21T04:00:10;15.00;82.40
33988;DHT22;37428;53.580;-1.666;2023-08-21T04:03:16;15.00;82.00
33988;DHT22;37428;53.580;-1.666;2023-08-21T04:06:18;15.00;82.10
33988;DHT22;37428;53.580;-1.666;2023-08-21T04:09:21;15.10;81.90
33988;DHT22;37428;53.580;-1.666;2023-08-21T04:12:23;15.10;81.80
33988;DHT22;37428;53.580;-1.666;2023-08-21T04:15:27;15.10;82.10
33988;DHT22;37428;53.580;-1.666;2023-08-21T04:18:31;15.10;81.80
33988;DHT22;37428;53.580;-1.666;2023-08-21T04:21:39;15.00;82.00
33988;DHT22;37428;53.580;-1.666;2023-08-21T04:24:47;14.90;82.00
33988;DHT22;37428;53.580;-1.666;2023-08-21T04:27:55;14.90;81.80
33988;DHT22;37428;53.580;-1.666;2023-08-21T04:31:06;14.80;82.30
33988;DHT22;37428;53.580;-1.666;2023-08-21T04:34:08;14.80;82.70
33988;DHT22;37428;53.580;-1.666;2023-08-21T04:37:14;14.70;82.20
33988;DHT22;37428;53.580;-1.666;2023-08-21T04:40:18;14.80;82.20
33988;DHT22;37428;53.580;-1.666;2023-08-21T04:43:22;14.70;82.20
33988;DHT22;37428;53.580;-1.666;2023-08-21T04:46:27;14.70;82.60
33988;DHT22;37428;53.580;-1.666;2023-08-21T04:49:35;14.70;82.90
33988;DHT22;37428;53.580;-1.666;2023-08-21T04:52:38;14.70;83.60
33988;DHT22;37428;53.580;-1.666;2023-08-21T04:55:42;14.70;83.50
33988;DHT22;37428;53.580;-1.666;2023-08-21T04:58:57;14.60;83.90
33988;DHT22;37428;53.580;-1.666;2023-08-21T05:02:03;14.50;83.50
33988;DHT22;37428;53.580;-1.666;2023-08-21T05:05:06;14.40;83.90
33988;DHT22;37428;53.580;-1.666;2023-08-21T05:08:11;14.40;83.80
33988;DHT22;37428;53.580;-1.666;2023-08-21T05:11:13;14.40;83.90
33988;DHT22;37428;53.580;-1.666;2023-08-21T05:14:15;14.40;84.20
33988;DHT22;37428;53.580;-1.666;2023-08-21T05:17:30;14.40;84.40
33988;DHT22;37428;53.580;-1.666;2023-08-21T05:20:34;14.30;84.30
33988;DHT22;37428;53.580;-1.666;2023-08-21T05:23:36;14.30;84.60
33988;DHT22;37428;53.580;-1.666;2023-08-21T05:26:38;14.30;84.40
33988;DHT22;37428;53.580;-1.666;2023-08-21T05:29:48;14.40;84.70
33988;DHT22;37428;53.580;-1.666;2023-08-21T05:32:55;14.30;84.80
33988;DHT22;37428;53.580;-1.666;2023-08-21T05:35:57;14.40;85.20
33988;DHT22;37428;53.580;-1.666;2023-08-21T05:39:07;14.40;85.40
33988;DHT22;37428;53.580;-1.666;2023-08-21T05:42:09;14.50;84.60
33988;DHT22;37428;53.580;-1.666;2023-08-21T05:45:23;14.60;84.30
33988;DHT22;37428;53.580;-1.666;2023-08-21T05:48:27;14.80;83.80
33988;DHT22;37428;53.580;-1.666;2023-08-21T05:51:29;14.90;83.70
33988;DHT22;37428;53.580;-1.666;2023-08-21T05:54:31;15.00;83.80
33988;DHT22;37428;53.580;-1.666;2023-08-21T05:57:49;15.00;84.00
33988;DHT22;37428;53.580;-1.666;2023-08-21T06:00:51;15.00;83.80
33988;DHT22;37428;53.580;-1.666;2023-08-21T06:03:57;15.10;83.70
33988;DHT22;37428;53.580;-1.666;2023-08-21T06:06:59;15.20;83.90
33988;DHT22;37428;53.580;-1.666;2023-08-21T06:10:06;15.30;84.30
33988;DHT22;37428;53.580;-1.666;2023-08-21T06:13:10;15.40;84.40
33988;DHT22;37428;53.580;-1.666;2023-08-21T06:16:12;15.40;84.20
33988;DHT22;37428;53.580;-1.666;2023-08-21T06:19:20;15.60;83.90
33988;DHT22;37428;53.580;-1.666;2023-08-21T06:22:22;15.70;83.50
33988;DHT22;37428;53.580;-1.666;2023-08-21T06:25:32;15.80;82.90
33988;DHT22;37428;53.580;-1.666;2023-08-21T06:28:37;16.00;81.90
33988;DHT22;37428;53.580;-1.666;2023-08-21T06:31:40;16.00;81.60
33988;DHT22;37428;53.580;-1.666;2023-08-21T06:34:44;16.20;81.50
33988;DHT22;37428;53.580;-1.666;2023-08-21T06:37:46;16.40;80.50
33988;DHT22;37428;53.580;-1.666;2023-08-21T06:40:57;16.60;80.10
33988;DHT22;37428;53.580;-1.666;2023-08-21T06:43:59;16.80;78.80
33988;DHT22;37428;53.580;-1.666;2023-08-21T06:47:01;17.00;78.70
33988;DHT22;37428;53.580;-1.666;2023-08-21T06:50:06;17.10;77.50
33988;DHT22;37428;53.580;-1.666;2023-08-21T06:53:10;17.20;77.70
33988;DHT22;37428;53.580;-1.666;2023-08-21T06:56:12;17.40;77.40
33988;DHT22;37428;53.580;-1.666;2023-08-21T06:59:14;17.60;77.20
33988;DHT22;37428;53.580;-1.666;2023-08-21T07:02:22;17.70;76.40
33988;DHT22;37428;53.580;-1.666;2023-08-21T07:05:25;17.80;77.30
33988;DHT22;37428;53.580;-1.666;2023-08-21T07:08:30;17.90;75.80
33988;DHT22;37428;53.580;-1.666;2023-08-21T07:11:33;18.00;74.40
33988;DHT22;37428;53.580;-1.666;2023-08-21T07:14:35;18.10;75.00
33988;DHT22;37428;53.580;-1.666;2023-08-21T07:17:43;18.30;74.90
33988;DHT22;37428;53.580;-1.666;2023-08-21T07:20:49;18.40;75.10
33988;DHT22;37428;53.580;-1.666;2023-08-21T07:23:54;18.60;74.20
33988;DHT22;37428;53.580;-1.666;2023-08-21T07:26:58;18.80;74.20
33988;DHT22;37428;53.580;-1.666;2023-08-21T07:30:07;19.00;73.90
33988;DHT22;37428;53.580;-1.666;2023-08-21T07:33:13;19.30;72.50
33988;DHT22;37428;53.580;-1.666;2023-08-21T07:36:17;19.80;70.80
33988;DHT22;37428;53.580;-1.666;2023-08-21T07:39:19;20.10;69.10
33988;DHT22;37428;53.580;-1.666;2023-08-21T07:42:22;20.10;68.30
33988;DHT22;37428;53.580;-1.666;2023-08-21T07:45:32;20.10;67.70
33988;DHT22;37428;53.580;-1.666;2023-08-21T07:48:35;20.10;68.60
33988;DHT22;37428;53.580;-1.666;2023-08-21T07:51:41;20.20;68.90
33988;DHT22;37428;53.580;-1.666;2023-08-21T07:54:44;20.30;68.00
33988;DHT22;37428;53.580;-1.666;2023-08-21T07:57:46;20.50;68.40
33988;DHT22;37428;53.580;-1.666;2023-08-21T08:01:10;20.50;66.80
33988;DHT22;37428;53.580;-1.666;2023-08-21T08:04:12;20.30;66.50
33988;DHT22;37428;53.580;-1.666;2023-08-21T08:07:25;20.30;67.10
33988;DHT22;37428;53.580;-1.666;2023-08-21T08:10:29;20.60;68.00
33988;DHT22;37428;53.580;-1.666;2023-08-21T08:13:33;20.70;66.80
33988;DHT22;37428;53.580;-1.666;2023-08-21T08:16:36;20.70;66.60
33988;DHT22;37428;53.580;-1.666;2023-08-21T08:19:38;20.90;65.10
33988;DHT22;37428;53.580;-1.666;2023-08-21T08:22:42;21.20;65.30
33988;DHT22;37428;53.580;-1.666;2023-08-21T08:25:45;21.70;64.30
33988;DHT22;37428;53.580;-1.666;2023-08-21T08:28:47;21.80;62.30
33988;DHT22;37428;53.580;-1.666;2023-08-21T08:31:50;21.70;61.80
33988;DHT22;37428;53.580;-1.666;2023-08-21T08:34:58;21.70;61.70
33988;DHT22;37428;53.580;-1.666;2023-08-21T08:38:05;21.80;62.40
33988;DHT22;37428;53.580;-1.666;2023-08-21T08:41:25;22.10;61.40
33988;DHT22;37428;53.580;-1.666;2023-08-21T08:44:30;22.10;61.90
33988;DHT22;37428;53.580;-1.666;2023-08-21T08:47:38;22.10;60.90
33988;DHT22;37428;53.580;-1.666;2023-08-21T08:50:45;22.10;61.50
33988;DHT22;37428;53.580;-1.666;2023-08-21T08:53:53;22.30;61.10
33988;DHT22;37428;53.580;-1.666;2023-08-21T08:58:33;22.20;60.70
33988;DHT22;37428;53.580;-1.666;2023-08-21T09:00:46;22.30;59.30
33988;DHT22;37428;53.580;-1.666;2023-08-21T09:03:54;21.80;60.90
33988;DHT22;37428;53.580;-1.666;2023-08-21T09:07:06;21.60;62.00
33988;DHT22;37428;53.580;-1.666;2023-08-21T09:10:15;21.90;62.90
33988;DHT22;37428;53.580;-1.666;2023-08-21T09:18:34;21.60;63.00
33988;DHT22;37428;53.580;-1.666;2023-08-21T09:20:26;21.50;63.40
33988;DHT22;37428;53.580;-1.666;2023-08-21T09:23:34;21.70;63.20
33988;DHT22;37428;53.580;-1.666;2023-08-21T09:26:45;21.60;62.40
33988;DHT22;37428;53.580;-1.666;2023-08-21T09:30:20;21.50;62.60
33988;DHT22;37428;53.580;-1.666;2023-08-21T09:33:23;21.50;62.10
33988;DHT22;37428;53.580;-1.666;2023-08-21T09:36:25;21.80;61.40
33988;DHT22;37428;53.580;-1.666;2023-08-21T09:39:38;21.80;61.00
33988;DHT22;37428;53.580;-1.666;2023-08-21T09:42:51;21.70;61.60
33988;DHT22;37428;53.580;-1.666;2023-08-21T09:45:55;21.70;62.50
33988;DHT22;37428;53.580;-1.666;2023-08-21T09:48:57;21.80;62.80
33988;DHT22;37428;53.580;-1.666;2023-08-21T09:52:07;21.70;62.90
33988;DHT22;37428;53.580;-1.666;2023-08-21T09:55:18;21.50;63.00
33988;DHT22;37428;53.580;-1.666;2023-08-21T09:58:35;21.20;62.70
33988;DHT22;37428;53.580;-1.666;2023-08-21T10:01:44;20.90;63.20
33988;DHT22;37428;53.580;-1.666;2023-08-21T10:04:56;20.70;63.80
33988;DHT22;37428;53.580;-1.666;2023-08-21T10:08:15;21.00;63.50
33988;DHT22;37428;53.580;-1.666;2023-08-21T10:11:20;21.70;64.60
33988;DHT22;37428;53.580;-1.666;2023-08-21T10:14:28;22.20;61.10
33988;DHT22;37428;53.580;-1.666;2023-08-21T10:17:43;22.50;59.70
33988;DHT22;37428;53.580;-1.666;2023-08-21T10:20:47;22.90;58.70
33988;DHT22;37428;53.580;-1.666;2023-08-21T10:24:26;22.60;57.70
33988;DHT22;37428;53.580;-1.666;2023-08-21T10:27:40;22.80;59.50
33988;DHT22;37428;53.580;-1.666;2023-08-21T10:30:47;23.00;57.50
33988;DHT22;37428;53.580;-1.666;2023-08-21T10:33:49;23.40;59.60
33988;DHT22;37428;53.580;-1.666;2023-08-21T10:37:09;23.60;55.90
33988;DHT22;37428;53.580;-1.666;2023-08-21T10:40:23;23.70;56.60
33988;DHT22;37428;53.580;-1.666;2023-08-21T10:43:59;23.50;56.40
33988;DHT22;37428;53.580;-1.666;2023-08-21T10:47:21;23.20;56.60
33988;DHT22;37428;53.580;-1.666;2023-08-21T10:50:41;23.30;56.90
33988;DHT22;37428;53.580;-1.666;2023-08-21T10:54:11;23.80;55.70
33988;DHT22;37428;53.580;-1.666;2023-08-21T10:57:15;24.20;56.70
33988;DHT22;37428;53.580;-1.666;2023-08-21T11:00:20;24.20;54.40
33988;DHT22;37428;53.580;-1.666;2023-08-21T11:03:27;24.00;53.80
33988;DHT22;37428;53.580;-1.666;2023-08-21T11:06:43;23.70;53.20
33988;DHT22;37428;53.580;-1.666;2023-08-21T11:10:00;23.50;53.90
33988;DHT22;37428;53.580;-1.666;2023-08-21T11:13:07;23.40;54.70
33988;DHT22;37428;53.580;-1.666;2023-08-21T11:16:26;23.60;54.80
33988;DHT22;37428;53.580;-1.666;2023-08-21T11:19:32;23.30;55.50
33988;DHT22;37428;53.580;-1.666;2023-08-21T11:22:45;23.10;56.00
33988;DHT22;37428;53.580;-1.666;2023-08-21T11:25:49;22.80;56.70
33988;DHT22;37428;53.580;-1.666;2023-08-21T11:28:57;22.60;58.10
33988;DHT22;37428;53.580;-1.666;2023-08-21T11:32:19;22.40;58.60
33988;DHT22;37428;53.580;-1.666;2023-08-21T11:35:26;22.30;59.40
33988;DHT22;37428;53.580;-1.666;2023-08-21T11:38:30;22.20;59.40
33988;DHT22;37428;53.580;-1.666;2023-08-21T11:41:54;22.20;60.00
33988;DHT22;37428;53.580;-1.666;2023-08-21T11:45:00;22.20;60.50
33988;DHT22;37428;53.580;-1.666;2023-08-21T11:48:02;22.20;59.80
33988;DHT22;37428;53.580;-1.666;2023-08-21T11:51:19;22.30;59.60
33988;DHT22;37428;53.580;-1.666;2023-08-21T11:54:23;22.40;60.70
33988;DHT22;37428;53.580;-1.666;2023-08-21T11:57:46;22.30;58.50
33988;DHT22;37428;53.580;-1.666;2023-08-21T12:01:06;22.50;59.20
33988;DHT22;37428;53.580;-1.666;2023-08-21T12:04:24;22.60;58.50
33988;DHT22;37428;53.580;-1.666;2023-08-21T12:07:45;22.60;56.90
33988;DHT22;37428;53.580;-1.666;2023-08-21T12:11:18;22.80;57.80
33988;DHT22;37428;53.580;-1.666;2023-08-21T12:14:44;22.70;57.70
33988;DHT22;37428;53.580;-1.666;2023-08-21T12:21:19;23.70;54.60
33988;DHT22;37428;53.580;-1.666;2023-08-21T12:24:40;24.20;52.80
33988;DHT22;37428;53.580;-1.666;2023-08-21T12:27:44;24.30;51.20
33988;DHT22;37428;53.580;-1.666;2023-08-21T12:30:47;24.60;52.70
33988;DHT22;37428;53.580;-1.666;2023-08-21T12:33:53;24.90;51.40
33988;DHT22;37428;53.580;-1.666;2023-08-21T12:36:57;25.10;52.00
33988;DHT22;37428;53.580;-1.666;2023-08-21T12:40:06;25.30;50.10
33988;DHT22;37428;53.580;-1.666;2023-08-21T12:43:15;25.40;49.80
33988;DHT22;37428;53.580;-1.666;2023-08-21T12:46:18;25.50;51.10
33988;DHT22;37428;53.580;-1.666;2023-08-21T12:49:20;25.40;49.30
33988;DHT22;37428;53.580;-1.666;2023-08-21T12:52:22;25.40;49.70
33988;DHT22;37428;53.580;-1.666;2023-08-21T12:55:37;25.30;48.90
33988;DHT22;37428;53.580;-1.666;2023-08-21T12:58:43;25.40;49.10
33988;DHT22;37428;53.580;-1.666;2023-08-21T13:01:45;25.60;48.60
33988;DHT22;37428;53.580;-1.666;2023-08-21T13:05:20;25.60;47.70
33988;DHT22;37428;53.580;-1.666;2023-08-21T13:08:23;25.40;48.10
33988;DHT22;37428;53.580;-1.666;2023-08-21T13:11:37;25.30;48.30
33988;DHT22;37428;53.580;-1.666;2023-08-21T13:14:45;25.30;48.00
33988;DHT22;37428;53.580;-1.666;2023-08-21T13:17:55;25.40;48.50
33988;DHT22;37428;53.580;-1.666;2023-08-21T13:21:01;25.30;49.20
33988;DHT22;37428;53.580;-1.666;2023-08-21T13:24:18;25.40;50.20
33988;DHT22;37428;53.580;-1.666;2023-08-21T13:27:36;25.40;50.20
33988;DHT22;37428;53.580;-1.666;2023-08-21T13:30:52;25.30;50.30
33988;DHT22;37428;53.580;-1.666;2023-08-21T13:33:54;25.30;47.80
33988;DHT22;37428;53.580;-1.666;2023-08-21T13:37:29;25.40;48.80
33988;DHT22;37428;53.580;-1.666;2023-08-21T13:40:31;25.40;47.90
33988;DHT22;37428;53.580;-1.666;2023-08-21T13:43:36;25.50;49.10
33988;DHT22;37428;53.580;-1.666;2023-08-21T13:47:02;25.50;48.40
33988;DHT22;37428;53.580;-1.666;2023-08-21T13:50:30;25.50;46.60
33988;DHT22;37428;53.580;-1.666;2023-08-21T13:53:44;25.40;45.70
33988;DHT22;37428;53.580;-1.666;2023-08-21T13:56:53;25.30;47.00
33988;DHT22;37428;53.580;-1.666;2023-08-21T14:00:26;25.20;47.20
33988;DHT22;37428;53.580;-1.666;2023-08-21T14:03:45;25.00;47.40
33988;DHT22;37428;53.580;-1.666;2023-08-21T14:06:50;24.80;48.50
33988;DHT22;37428;53.580;-1.666;2023-08-21T14:09:54;24.80;48.40
33988;DHT22;37428;53.580;-1.666;2023-08-21T14:13:17;24.90;49.20
33988;DHT22;37428;53.580;-1.666;2023-08-21T14:16:40;24.70;49.30
33988;DHT22;37428;53.580;-1.666;2023-08-21T14:23:03;24.70;49.40
33988;DHT22;37428;53.580;-1.666;2023-08-21T14:23:37;24.90;48.00
33988;DHT22;37428;53.580;-1.666;2023-08-21T14:27:09;24.70;47.70
33988;DHT22;37428;53.580;-1.666;2023-08-21T14:30:42;24.30;47.90
33988;DHT22;37428;53.580;-1.666;2023-08-21T14:34:03;24.10;49.70
33988;DHT22;37428;53.580;-1.666;2023-08-21T14:37:05;24.10;50.00
33988;DHT22;37428;53.580;-1.666;2023-08-21T14:40:18;24.10;49.30
33988;DHT22;37428;53.580;-1.666;2023-08-21T14:43:20;23.90;50.80
33988;DHT22;37428;53.580;-1.666;2023-08-21T14:46:22;23.70;51.80
33988;DHT22;37428;53.580;-1.666;2023-08-21T14:49:50;23.60;52.20
33988;DHT22;37428;53.580;-1.666;2023-08-21T14:52:58;23.40;52.00
33988;DHT22;37428;53.580;-1.666;2023-08-21T14:56:28;23.40;53.40
33988;DHT22;37428;53.580;-1.666;2023-08-21T14:59:50;23.80;53.30
33988;DHT22;37428;53.580;-1.666;2023-08-21T15:02:53;24.10;53.40
33988;DHT22;37428;53.580;-1.666;2023-08-21T15:06:24;24.40;52.30
33988;DHT22;37428;53.580;-1.666;2023-08-21T15:09:30;24.50;51.80
33988;DHT22;37428;53.580;-1.666;2023-08-21T15:12:43;24.60;51.70
33988;DHT22;37428;53.580;-1.666;2023-08-21T15:15:45;24.60;51.90
33988;DHT22;37428;53.580;-1.666;2023-08-21T15:18:50;24.30;51.60
33988;DHT22;37428;53.580;-1.666;2023-08-21T15:25:44;23.50;53.00
33988;DHT22;37428;53.580;-1.666;2023-08-21T15:29:16;23.50;54.10
33988;DHT22;37428;53.580;-1.666;2023-08-21T15:32:20;23.50;53.70
33988;DHT22;37428;53.580;-1.666;2023-08-21T15:35:44;23.70;53.60
33988;DHT22;37428;53.580;-1.666;2023-08-21T15:40:34;23.70;53.90
33988;DHT22;37428;53.580;-1.666;2023-08-21T15:42:35;23.80;54.50
33988;DHT22;37428;53.580;-1.666;2023-08-21T15:45:58;23.90;55.00
33988;DHT22;37428;53.580;-1.666;2023-08-21T15:49:15;23.90;54.40
33988;DHT22;37428;53.580;-1.666;2023-08-21T15:52:37;23.90;54.70
33988;DHT22;37428;53.580;-1.666;2023-08-21T15:56:25;23.70;54.80
33988;DHT22;37428;53.580;-1.666;2023-08-21T15:59:19;23.50;55.40
33988;DHT22;37428;53.580;-1.666;2023-08-21T16:02:53;23.30;55.80
33988;DHT22;37428;53.580;-1.666;2023-08-21T16:06:16;23.10;56.40
33988;DHT22;37428;53.580;-1.666;2023-08-21T16:09:28;23.20;55.90
33988;DHT22;37428;53.580;-1.666;2023-08-21T16:12:54;23.30;56.50
33988;DHT22;37428;53.580;-1.666;2023-08-21T16:19:40;23.30;55.90
33988;DHT22;37428;53.580;-1.666;2023-08-21T16:23:04;23.40;56.70
33988;DHT22;37428;53.580;-1.666;2023-08-21T16:26:09;23.70;56.70
33988;DHT22;37428;53.580;-1.666;2023-08-21T16:29:12;23.90;55.30
33988;DHT22;37428;53.580;-1.666;2023-08-21T16:32:44;24.20;55.20
33988;DHT22;37428;53.580;-1.666;2023-08-21T16:39:33;23.80;55.10
33988;DHT22;37428;53.580;-1.666;2023-08-21T16:43:01;23.50;55.10
33988;DHT22;37428;53.580;-1.666;2023-08-21T16:46:35;23.30;54.60
33988;DHT22;37428;53.580;-1.666;2023-08-21T16:49:50;23.30;55.40
33988;DHT22;37428;53.580;-1.666;2023-08-21T16:53:08;23.40;54.90
33988;DHT22;37428;53.580;-1.666;2023-08-21T16:56:20;23.30;55.50
33988;DHT22;37428;53.580;-1.666;2023-08-21T16:59:49;23.20;55.80
33988;DHT22;37428;53.580;-1.666;2023-08-21T17:02:56;23.20;55.90
33988;DHT22;37428;53.580;-1.666;2023-08-21T17:06:05;23.20;55.60
33988;DHT22;37428;53.580;-1.666;2023-08-21T17:13:03;22.80;56.30
33988;DHT22;37428;53.580;-1.666;2023-08-21T17:16:11;22.60;57.50
33988;DHT22;37428;53.580;-1.666;2023-08-21T17:19:19;22.40;57.30
33988;DHT22;37428;53.580;-1.666;2023-08-21T17:22:25;22.40;57.90
33988;DHT22;37428;53.580;-1.666;2023-08-21T17:26:12;22.30;57.80
33988;DHT22;37428;53.580;-1.666;2023-08-21T17:29:40;22.20;58.70
33988;DHT22;37428;53.580;-1.666;2023-08-21T17:36:43;22.00;59.90
33988;DHT22;37428;53.580;-1.666;2023-08-21T17:44:16;21.80;61.30
33988;DHT22;37428;53.580;-1.666;2023-08-21T17:47:16;21.70;61.80
33988;DHT22;37428;53.580;-1.666;2023-08-21T17:50:18;21.70;62.40
33988;DHT22;37428;53.580;-1.666;2023-08-21T17:53:33;21.60;62.40
33988;DHT22;37428;53.580;-1.666;2023-08-21T17:56:47;21.50;62.70
33988;DHT22;37428;53.580;-1.666;2023-08-21T18:00:20;21.40;63.10
33988;DHT22;37428;53.580;-1.666;2023-08-21T18:03:40;21.40;63.60
33988;DHT22;37428;53.580;-1.666;2023-08-21T18:06:42;21.30;64.00
33988;DHT22;37428;53.580;-1.666;2023-08-21T18:09:59;21.20;64.80
33988;DHT22;37428;53.580;-1.666;2023-08-21T18:13:10;21.10;65.90
33988;DHT22;37428;53.580;-1.666;2023-08-21T18:16:27;21.10;67.60
33988;DHT22;37428;53.580;-1.666;2023-08-21T18:19:35;21.00;68.80
33988;DHT22;37428;53.580;-1.666;2023-08-21T18:22:50;20.90;66.90
33988;DHT22;37428;53.580;-1.666;2023-08-21T18:25:55;20.80;67.10
33988;DHT22;37428;53.580;-1.666;2023-08-21T18:29:09;20.80;66.90
33988;DHT22;37428;53.580;-1.666;2023-08-21T18:32:31;20.80;67.40
33988;DHT22;37428;53.580;-1.666;2023-08-21T18:35:44;20.60;67.60
33988;DHT22;37428;53.580;-1.666;2023-08-21T18:42:12;20.50;68.30
33988;DHT22;37428;53.580;-1.666;2023-08-21T18:45:45;20.40;68.30
33988;DHT22;37428;53.580;-1.666;2023-08-21T18:49:15;20.40;68.60
33988;DHT22;37428;53.580;-1.666;2023-08-21T18:52:27;20.30;68.70
33988;DHT22;37428;53.580;-1.666;2023-08-21T18:55:42;20.30;69.10
33988;DHT22;37428;53.580;-1.666;2023-08-21T18:58:59;20.30;69.20
33988;DHT22;37428;53.580;-1.666;2023-08-21T19:02:07;20.20;69.50
33988;DHT22;37428;53.580;-1.666;2023-08-21T19:05:47;20.20;69.90
33988;DHT22;37428;53.580;-1.666;2023-08-21T19:09:04;20.20;70.00
33988;DHT22;37428;53.580;-1.666;2023-08-21T19:12:15;20.10;70.40
33988;DHT22;37428;53.580;-1.666;2023-08-21T19:19:35;20.00;71.30
33988;DHT22;37428;53.580;-1.666;2023-08-21T19:22:57;19.90;72.80
33988;DHT22;37428;53.580;-1.666;2023-08-21T19:26:27;19.70;73.40
33988;DHT22;37428;53.580;-1.666;2023-08-21T19:29:30;19.60;74.00
33988;DHT22;37428;53.580;-1.666;2023-08-21T19:32:34;19.50;74.40
33988;DHT22;37428;53.580;-1.666;2023-08-21T19:35:51;19.50;75.00
33988;DHT22;37428;53.580;-1.666;2023-08-21T19:39:22;19.40;75.70
33988;DHT22;37428;53.580;-1.666;2023-08-21T19:42:36;19.40;76.80
33988;DHT22;37428;53.580;-1.666;2023-08-21T19:45:42;19.20;77.20
33988;DHT22;37428;53.580;-1.666;2023-08-21T19:49:10;19.10;77.60
33988;DHT22;37428;53.580;-1.666;2023-08-21T19:53:56;19.00;78.10
33988;DHT22;37428;53.580;-1.666;2023-08-21T19:55:50;18.80;79.10
33988;DHT22;37428;53.580;-1.666;2023-08-21T20:02:32;18.50;81.10
33988;DHT22;37428;53.580;-1.666;2023-08-21T20:05:44;18.40;81.70
33988;DHT22;37428;53.580;-1.666;2023-08-21T20:09:11;18.30;82.40
33988;DHT22;37428;53.580;-1.666;2023-08-21T20:12:37;18.30;82.50
33988;DHT22;37428;53.580;-1.666;2023-08-21T20:16:03;18.30;82.60
33988;DHT22;37428;53.580;-1.666;2023-08-21T20:19:18;18.30;82.70
33988;DHT22;37428;53.580;-1.666;2023-08-21T20:22:20;18.30;83.20
33988;DHT22;37428;53.580;-1.666;2023-08-21T20:25:22;18.30;83.20